sensor_id;sensor_type;location;lat;lon;timestamp;pressure;altitude;pressure_sealevel;temperature;humidity
57086;BME280;42964;42.910;23.792;2023-03-15T00:01:18;96548.06;;;9.10;33.38
57086;BME280;42964;42.910;23.792;2023-03-15T00:06:17;96542.97;;;9.05;33.39
57086;BME280;42964;42.910;23.792;2023-03-15T00:11:16;96553.38;;;9.02;33.58
57086;BME280;42964;42.910;23.792;2023-03-15T00:16:15;96542.13;;;9.02;33.30
57086;BME280;42964;42.910;23.792;2023-03-15T00:21:15;96547.22;;;9.08;32.94
57086;BME280;42964;42.910;23.792;2023-03-15T00:26:14;96548.78;;;9.20;32.91
57086;BME280;42964;42.910;23.792;2023-03-15T00:31:14;96534.22;;;9.14;33.10
57086;BME280;42964;42.910;23.792;2023-03-15T00:36:13;96528.19;;;9.12;33.07
57086;BME280;42964;42.910;23.792;2023-03-15T00:41:13;96524.13;;;8.94;32.60
57086;BME280;42964;42.910;23.792;2023-03-15T00:46:13;96513.81;;;8.92;32.38
57086;BME280;42964;42.910;23.792;2023-03-15T00:51:13;96512.06;;;8.94;32.91
57086;BME280;42964;42.910;23.792;2023-03-15T00:56:22;96494.97;;;8.84;32.35
57086;BME280;42964;42.910;23.792;2023-03-15T01:01:23;96501.94;;;8.79;33.00
57086;BME280;42964;42.910;23.792;2023-03-15T01:06:23;96498.44;;;8.83;33.45
57086;BME280;42964;42.910;23.792;2023-03-15T01:11:24;96498.69;;;8.65;32.48
57086;BME280;42964;42.910;23.792;2023-03-15T01:16:23;96499.56;;;8.64;33.06
57086;BME280;42964;42.910;23.792;2023-03-15T01:21:22;96508.16;;;8.66;33.19
57086;BME280;42964;42.910;23.792;2023-03-15T01:26:21;96502.25;;;8.55;33.52
57086;BME280;42964;42.910;23.792;2023-03-15T01:31:24;96478.97;;;8.55;33.67
57086;BME280;42964;42.910;23.792;2023-03-15T01:36:23;96467.19;;;8.37;33.91
57086;BME280;42964;42.910;23.792;2023-03-15T01:41:22;96470.72;;;8.29;34.11
57086;BME280;42964;42.910;23.792;2023-03-15T01:46:24;96461.31;;;8.22;34.09
57086;BME280;42964;42.910;23.792;2023-03-15T01:51:25;96461.19;;;8.33;33.87
57086;BME280;42964;42.910;23.792;2023-03-15T01:56:25;96453.63;;;8.18;33.91
57086;BME280;42964;42.910;23.792;2023-03-15T02:01:25;96445.78;;;8.25;34.85
57086;BME280;42964;42.910;23.792;2023-03-15T02:06:24;96451.81;;;8.26;34.35
57086;BME280;42964;42.910;23.792;2023-03-15T02:11:24;96442.38;;;8.22;34.67
57086;BME280;42964;42.910;23.792;2023-03-15T02:16:23;96436.28;;;8.26;34.42
57086;BME280;42964;42.910;23.792;2023-03-15T02:21:25;96439.06;;;8.12;35.24
57086;BME280;42964;42.910;23.792;2023-03-15T02:26:29;96434.88;;;8.00;35.35
57086;BME280;42964;42.910;23.792;2023-03-15T02:31:32;96443.25;;;8.21;35.40
57086;BME280;42964;42.910;23.792;2023-03-15T02:36:35;96435.41;;;8.28;35.78
57086;BME280;42964;42.910;23.792;2023-03-15T02:41:38;96433.72;;;8.24;35.89
57086;BME280;42964;42.910;23.792;2023-03-15T02:46:39;96426.00;;;8.21;35.10
57086;BME280;42964;42.910;23.792;2023-03-15T02:51:39;96410.78;;;8.01;36.66
57086;BME280;42964;42.910;23.792;2023-03-15T02:56:38;96405.50;;;8.09;36.26
57086;BME280;42964;42.910;23.792;2023-03-15T03:01:36;96415.97;;;8.00;36.22
57086;BME280;42964;42.910;23.792;2023-03-15T03:06:35;96379.28;;;7.72;35.99
57086;BME280;42964;42.910;23.792;2023-03-15T03:11:34;96399.69;;;7.93;36.23
57086;BME280;42964;42.910;23.792;2023-03-15T03:16:32;96405.78;;;7.86;37.43
57086;BME280;42964;42.910;23.792;2023-03-15T03:21:31;96406.59;;;7.91;35.77
57086;BME280;42964;42.910;23.792;2023-03-15T03:26:30;96404.63;;;8.10;35.29
57086;BME280;42964;42.910;23.792;2023-03-15T03:31:30;96412.97;;;8.32;35.26
57086;BME280;42964;42.910;23.792;2023-03-15T03:36:31;96405.16;;;8.37;35.53
57086;BME280;42964;42.910;23.792;2023-03-15T03:41:30;96392.28;;;8.32;36.18
57086;BME280;42964;42.910;23.792;2023-03-15T03:46:28;96382.84;;;8.29;35.71
57086;BME280;42964;42.910;23.792;2023-03-15T03:51:27;96389.03;;;8.18;36.04
57086;BME280;42964;42.910;23.792;2023-03-15T03:56:26;96368.50;;;8.08;35.64
57086;BME280;42964;42.910;23.792;2023-03-15T04:01:25;96347.63;;;8.21;35.73
57086;BME280;42964;42.910;23.792;2023-03-15T04:06:24;96359.97;;;8.00;36.00
57086;BME280;42964;42.910;23.792;2023-03-15T04:11:23;96367.53;;;8.14;35.82
57086;BME280;42964;42.910;23.792;2023-03-15T04:16:24;96357.22;;;8.13;35.98
57086;BME280;42964;42.910;23.792;2023-03-15T04:21:24;96345.91;;;8.20;36.15
57086;BME280;42964;42.910;23.792;2023-03-15T04:26:22;96353.72;;;8.15;36.06
57086;BME280;42964;42.910;23.792;2023-03-15T04:31:24;96364.00;;;8.20;36.39
57086;BME280;42964;42.910;23.792;2023-03-15T04:36:24;96366.75;;;8.07;36.35
57086;BME280;42964;42.910;23.792;2023-03-15T04:41:23;96369.34;;;8.06;36.65
57086;BME280;42964;42.910;23.792;2023-03-15T04:46:25;96361.03;;;7.85;37.68
57086;BME280;42964;42.910;23.792;2023-03-15T04:51:24;96352.34;;;7.90;37.27
57086;BME280;42964;42.910;23.792;2023-03-15T04:56:23;96362.84;;;7.79;37.14
57086;BME280;42964;42.910;23.792;2023-03-15T05:01:27;96363.69;;;7.81;37.89
57086;BME280;42964;42.910;23.792;2023-03-15T05:06:26;96364.41;;;7.92;37.44
57086;BME280;42964;42.910;23.792;2023-03-15T05:11:25;96365.09;;;8.03;37.03
57086;BME280;42964;42.910;23.792;2023-03-15T05:16:24;96366.72;;;8.11;37.73
57086;BME280;42964;42.910;23.792;2023-03-15T05:23:26;96350.88;;;8.35;37.33
57086;BME280;42964;42.910;23.792;2023-03-15T05:30:12;96357.78;;;8.35;37.36
57086;BME280;42964;42.910;23.792;2023-03-15T05:35:13;96350.81;;;8.38;37.59
57086;BME280;42964;42.910;23.792;2023-03-15T05:40:12;96347.97;;;8.57;36.78
57086;BME280;42964;42.910;23.792;2023-03-15T05:45:11;96325.81;;;8.40;39.45
57086;BME280;42964;42.910;23.792;2023-03-15T05:50:10;96346.16;;;8.62;38.54
57086;BME280;42964;42.910;23.792;2023-03-15T05:55:09;96362.97;;;8.89;38.07
57086;BME280;42964;42.910;23.792;2023-03-15T06:00:08;96352.13;;;9.17;38.67
57086;BME280;42964;42.910;23.792;2023-03-15T06:05:08;96360.59;;;9.26;37.18
57086;BME280;42964;42.910;23.792;2023-03-15T06:10:07;96350.63;;;9.53;35.83
57086;BME280;42964;42.910;23.792;2023-03-15T06:15:06;96344.78;;;9.87;38.23
57086;BME280;42964;42.910;23.792;2023-03-15T06:20:06;96319.84;;;9.38;38.04
57086;BME280;42964;42.910;23.792;2023-03-15T06:25:06;96336.03;;;9.49;38.50
57086;BME280;42964;42.910;23.792;2023-03-15T06:30:05;96345.41;;;9.56;38.70
57086;BME280;42964;42.910;23.792;2023-03-15T06:35:05;96340.03;;;9.65;38.92
57086;BME280;42964;42.910;23.792;2023-03-15T06:40:06;96319.16;;;9.73;38.61
57086;BME280;42964;42.910;23.792;2023-03-15T06:45:07;96327.84;;;10.11;37.64
57086;BME280;42964;42.910;23.792;2023-03-15T06:50:08;96314.44;;;10.31;35.96
57086;BME280;42964;42.910;23.792;2023-03-15T06:55:07;96318.06;;;10.59;33.90
57086;BME280;42964;42.910;23.792;2023-03-15T07:00:08;96267.94;;;10.59;34.08
57086;BME280;42964;42.910;23.792;2023-03-15T07:05:09;96312.03;;;11.28;33.09
57086;BME280;42964;42.910;23.792;2023-03-15T07:10:09;96286.16;;;11.24;33.54
57086;BME280;42964;42.910;23.792;2023-03-15T07:15:08;96303.34;;;11.29;33.47
57086;BME280;42964;42.910;23.792;2023-03-15T07:20:08;96310.41;;;11.23;32.69
57086;BME280;42964;42.910;23.792;2023-03-15T07:25:07;96296.38;;;11.31;32.94
57086;BME280;42964;42.910;23.792;2023-03-15T07:30:07;96296.09;;;11.41;33.74
57086;BME280;42964;42.910;23.792;2023-03-15T07:35:07;96273.53;;;11.43;33.23
57086;BME280;42964;42.910;23.792;2023-03-15T07:40:07;96296.38;;;11.92;33.56
57086;BME280;42964;42.910;23.792;2023-03-15T07:45:10;96290.78;;;12.34;32.06
57086;BME280;42964;42.910;23.792;2023-03-15T07:50:09;96301.41;;;12.81;32.18
57086;BME280;42964;42.910;23.792;2023-03-15T07:55:09;96290.66;;;13.17;31.69
57086;BME280;42964;42.910;23.792;2023-03-15T08:00:08;96288.63;;;13.25;31.04
57086;BME280;42964;42.910;23.792;2023-03-15T08:05:09;96276.13;;;13.34;31.35
57086;BME280;42964;42.910;23.792;2023-03-15T08:10:09;96280.41;;;13.61;30.94
57086;BME280;42964;42.910;23.792;2023-03-15T08:15:10;96267.63;;;13.54;30.47
57086;BME280;42964;42.910;23.792;2023-03-15T08:20:10;96280.88;;;13.72;30.77
57086;BME280;42964;42.910;23.792;2023-03-15T08:25:10;96262.47;;;13.76;30.74
57086;BME280;42964;42.910;23.792;2023-03-15T08:30:12;96249.69;;;13.92;30.53
57086;BME280;42964;42.910;23.792;2023-03-15T08:35:13;96258.56;;;14.10;29.22
57086;BME280;42964;42.910;23.792;2023-03-15T08:40:14;96247.16;;;14.13;30.52
57086;BME280;42964;42.910;23.792;2023-03-15T08:45:14;96239.78;;;14.24;29.39
57086;BME280;42964;42.910;23.792;2023-03-15T08:50:15;96232.97;;;14.20;29.95
57086;BME280;42964;42.910;23.792;2023-03-15T08:55:15;96226.50;;;14.51;29.86
57086;BME280;42964;42.910;23.792;2023-03-15T09:00:14;96227.75;;;14.62;30.07
57086;BME280;42964;42.910;23.792;2023-03-15T09:05:19;96236.81;;;15.17;30.40
57086;BME280;42964;42.910;23.792;2023-03-15T09:10:18;96248.19;;;15.55;29.00
57086;BME280;42964;42.910;23.792;2023-03-15T09:15:18;96234.19;;;15.56;28.89
57086;BME280;42964;42.910;23.792;2023-03-15T09:20:18;96232.19;;;15.61;29.53
57086;BME280;42964;42.910;23.792;2023-03-15T09:25:20;96233.50;;;15.72;28.88
57086;BME280;42964;42.910;23.792;2023-03-15T09:30:19;96221.06;;;15.77;28.57
57086;BME280;42964;42.910;23.792;2023-03-15T09:35:19;96222.16;;;16.09;28.49
57086;BME280;42964;42.910;23.792;2023-03-15T09:40:26;96222.34;;;16.42;28.58
57086;BME280;42964;42.910;23.792;2023-03-15T09:51:09;96225.69;;;16.27;28.66
57086;BME280;42964;42.910;23.792;2023-03-15T09:56:57;96241.53;;;16.24;28.33
57086;BME280;42964;42.910;23.792;2023-03-15T10:01:58;96240.66;;;16.42;28.05
57086;BME280;42964;42.910;23.792;2023-03-15T10:07:01;96236.50;;;16.38;28.28
57086;BME280;42964;42.910;23.792;2023-03-15T10:12:08;96220.56;;;16.60;28.53
57086;BME280;42964;42.910;23.792;2023-03-15T10:17:12;96232.69;;;16.98;28.73
57086;BME280;42964;42.910;23.792;2023-03-15T10:27:20;96241.94;;;17.22;27.35
57086;BME280;42964;42.910;23.792;2023-03-15T10:32:24;96250.94;;;17.34;27.59
57086;BME280;42964;42.910;23.792;2023-03-15T10:37:25;96250.09;;;17.33;27.77
57086;BME280;42964;42.910;23.792;2023-03-15T10:42:30;96237.09;;;17.48;27.74
57086;BME280;42964;42.910;23.792;2023-03-15T10:47:29;96217.66;;;17.68;26.61
57086;BME280;42964;42.910;23.792;2023-03-15T10:52:39;96218.03;;;17.77;26.38
57086;BME280;42964;42.910;23.792;2023-03-15T10:57:41;96208.06;;;18.00;27.15
57086;BME280;42964;42.910;23.792;2023-03-15T11:03:06;96209.72;;;18.33;27.21
57086;BME280;42964;42.910;23.792;2023-03-15T11:08:14;96208.44;;;18.40;26.96
57086;BME280;42964;42.910;23.792;2023-03-15T11:13:25;96210.94;;;18.11;26.54
57086;BME280;42964;42.910;23.792;2023-03-15T11:18:28;96214.31;;;17.82;27.38
57086;BME280;42964;42.910;23.792;2023-03-15T11:23:32;96218.97;;;17.76;27.56
57086;BME280;42964;42.910;23.792;2023-03-15T11:28:35;96214.06;;;17.86;27.86
57086;BME280;42964;42.910;23.792;2023-03-15T11:33:45;96190.28;;;18.05;26.64
57086;BME280;42964;42.910;23.792;2023-03-15T11:38:46;96204.16;;;18.39;27.12
57086;BME280;42964;42.910;23.792;2023-03-15T11:49:36;96199.06;;;18.96;26.46
57086;BME280;42964;42.910;23.792;2023-03-15T11:54:38;96196.84;;;19.05;26.03
57086;BME280;42964;42.910;23.792;2023-03-15T11:59:38;96188.16;;;18.74;26.25
57086;BME280;42964;42.910;23.792;2023-03-15T12:04:43;96195.78;;;18.63;26.52
57086;BME280;42964;42.910;23.792;2023-03-15T12:09:56;96192.56;;;18.27;25.65
57086;BME280;42964;42.910;23.792;2023-03-15T12:25:33;96195.97;;;17.48;27.52
57086;BME280;42964;42.910;23.792;2023-03-15T12:30:43;96188.66;;;17.22;28.15
57086;BME280;42964;42.910;23.792;2023-03-15T12:35:43;96190.72;;;16.82;28.70
57086;BME280;42964;42.910;23.792;2023-03-15T12:40:54;96202.41;;;16.57;28.93
57086;BME280;42964;42.910;23.792;2023-03-15T12:45:53;96193.81;;;16.36;29.23
57086;BME280;42964;42.910;23.792;2023-03-15T12:50:54;96196.72;;;16.13;30.51
57086;BME280;42964;42.910;23.792;2023-03-15T12:55:54;96185.03;;;15.83;32.93
57086;BME280;42964;42.910;23.792;2023-03-15T13:00:54;96201.88;;;15.38;34.23
57086;BME280;42964;42.910;23.792;2023-03-15T13:27:02;96196.44;;;16.19;31.79
57086;BME280;42964;42.910;23.792;2023-03-15T13:32:18;96213.75;;;16.21;32.22
57086;BME280;42964;42.910;23.792;2023-03-15T13:37:22;96210.13;;;16.24;32.44
57086;BME280;42964;42.910;23.792;2023-03-15T13:42:27;96218.59;;;16.12;32.63
57086;BME280;42964;42.910;23.792;2023-03-15T13:47:26;96202.81;;;15.94;33.38
57086;BME280;42964;42.910;23.792;2023-03-15T13:52:25;96195.78;;;16.14;33.54
57086;BME280;42964;42.910;23.792;2023-03-15T13:57:24;96212.38;;;16.32;32.46
57086;BME280;42964;42.910;23.792;2023-03-15T14:07:28;96213.75;;;16.21;33.56
57086;BME280;42964;42.910;23.792;2023-03-15T14:12:29;96196.69;;;15.95;32.44
57086;BME280;42964;42.910;23.792;2023-03-15T14:17:30;96217.25;;;15.84;32.73
57086;BME280;42964;42.910;23.792;2023-03-15T14:22:29;96219.25;;;15.39;33.63
57086;BME280;42964;42.910;23.792;2023-03-15T14:27:29;96221.72;;;14.82;34.56
57086;BME280;42964;42.910;23.792;2023-03-15T14:32:31;96207.69;;;14.43;34.71
57086;BME280;42964;42.910;23.792;2023-03-15T14:37:38;96233.81;;;13.98;35.50
57086;BME280;42964;42.910;23.792;2023-03-15T14:42:37;96238.00;;;13.57;36.00
57086;BME280;42964;42.910;23.792;2023-03-15T14:47:41;96244.00;;;13.10;36.32
57086;BME280;42964;42.910;23.792;2023-03-15T14:52:42;96251.28;;;13.01;36.70
57086;BME280;42964;42.910;23.792;2023-03-15T14:57:42;96245.16;;;13.02;36.75
57086;BME280;42964;42.910;23.792;2023-03-15T15:02:41;96249.94;;;12.89;36.30
57086;BME280;42964;42.910;23.792;2023-03-15T15:07:40;96245.38;;;12.70;36.36
57086;BME280;42964;42.910;23.792;2023-03-15T15:12:39;96255.47;;;12.53;36.45
57086;BME280;42964;42.910;23.792;2023-03-15T15:17:38;96264.22;;;12.50;36.68
57086;BME280;42964;42.910;23.792;2023-03-15T15:22:39;96272.38;;;12.66;36.31
57086;BME280;42964;42.910;23.792;2023-03-15T15:27:38;96286.59;;;12.83;36.40
57086;BME280;42964;42.910;23.792;2023-03-15T15:32:37;96288.94;;;12.90;35.93
57086;BME280;42964;42.910;23.792;2023-03-15T15:37:36;96291.34;;;12.97;36.07
57086;BME280;42964;42.910;23.792;2023-03-15T15:42:35;96282.44;;;12.50;36.56
57086;BME280;42964;42.910;23.792;2023-03-15T15:47:34;96139.47;;;11.38;37.67
57086;BME280;42964;42.910;23.792;2023-03-15T15:52:34;96312.34;;;12.09;38.22
57086;BME280;42964;42.910;23.792;2023-03-15T15:57:33;96323.94;;;11.97;39.00
57086;BME280;42964;42.910;23.792;2023-03-15T16:02:32;96326.72;;;11.91;38.91
57086;BME280;42964;42.910;23.792;2023-03-15T16:07:32;96337.16;;;11.89;38.86
57086;BME280;42964;42.910;23.792;2023-03-15T16:12:32;96350.34;;;11.83;39.34
57086;BME280;42964;42.910;23.792;2023-03-15T16:17:32;96357.31;;;11.50;39.31
57086;BME280;42964;42.910;23.792;2023-03-15T16:22:31;96352.97;;;11.51;39.37
57086;BME280;42964;42.910;23.792;2023-03-15T16:27:32;96370.75;;;11.33;39.75
57086;BME280;42964;42.910;23.792;2023-03-15T16:32:31;96379.19;;;11.09;40.03
57086;BME280;42964;42.910;23.792;2023-03-15T16:37:33;96371.63;;;10.99;40.17
57086;BME280;42964;42.910;23.792;2023-03-15T16:42:32;96385.09;;;11.14;40.94
57086;BME280;42964;42.910;23.792;2023-03-15T16:47:34;96390.94;;;11.22;39.99
57086;BME280;42964;42.910;23.792;2023-03-15T16:52:33;96402.22;;;11.21;39.81
57086;BME280;42964;42.910;23.792;2023-03-15T16:57:32;96408.56;;;11.11;39.13
57086;BME280;42964;42.910;23.792;2023-03-15T17:02:31;96405.78;;;11.17;39.73
57086;BME280;42964;42.910;23.792;2023-03-15T17:07:33;96418.66;;;11.21;39.95
57086;BME280;42964;42.910;23.792;2023-03-15T17:12:34;96435.97;;;11.22;40.07
57086;BME280;42964;42.910;23.792;2023-03-15T17:17:34;96434.81;;;11.33;40.47
57086;BME280;42964;42.910;23.792;2023-03-15T17:22:33;96441.69;;;11.35;41.42
57086;BME280;42964;42.910;23.792;2023-03-15T17:27:43;96441.56;;;11.40;43.08
57086;BME280;42964;42.910;23.792;2023-03-15T17:32:42;96437.44;;;11.31;44.52
57086;BME280;42964;42.910;23.792;2023-03-15T17:37:41;96422.38;;;11.11;44.93
57086;BME280;42964;42.910;23.792;2023-03-15T17:42:43;96442.94;;;11.20;44.54
57086;BME280;42964;42.910;23.792;2023-03-15T17:47:42;96449.09;;;11.16;45.15
57086;BME280;42964;42.910;23.792;2023-03-15T17:52:42;96453.53;;;11.11;44.91
57086;BME280;42964;42.910;23.792;2023-03-15T17:57:42;96452.69;;;11.11;43.95
57086;BME280;42964;42.910;23.792;2023-03-15T18:02:41;96451.97;;;11.04;44.40
57086;BME280;42964;42.910;23.792;2023-03-15T18:07:42;96449.81;;;10.84;44.74
57086;BME280;42964;42.910;23.792;2023-03-15T18:12:44;96473.81;;;10.94;44.32
57086;BME280;42964;42.910;23.792;2023-03-15T18:17:44;96468.63;;;10.95;44.30
57086;BME280;42964;42.910;23.792;2023-03-15T18:22:43;96466.00;;;10.97;45.59
57086;BME280;42964;42.910;23.792;2023-03-15T18:27:41;96467.84;;;10.92;44.93
57086;BME280;42964;42.910;23.792;2023-03-15T18:32:41;96486.69;;;10.98;46.24
57086;BME280;42964;42.910;23.792;2023-03-15T18:37:40;96491.03;;;10.98;46.44
57086;BME280;42964;42.910;23.792;2023-03-15T18:42:40;96491.88;;;11.00;47.26
57086;BME280;42964;42.910;23.792;2023-03-15T18:47:39;96473.97;;;10.86;47.96
57086;BME280;42964;42.910;23.792;2023-03-15T18:52:38;96493.09;;;10.82;47.58
57086;BME280;42964;42.910;23.792;2023-03-15T18:57:37;96511.34;;;10.77;47.50
57086;BME280;42964;42.910;23.792;2023-03-15T19:02:40;96513.94;;;10.79;48.06
57086;BME280;42964;42.910;23.792;2023-03-15T19:07:40;96520.03;;;10.78;48.25
57086;BME280;42964;42.910;23.792;2023-03-15T19:12:40;96526.22;;;10.71;49.08
57086;BME280;42964;42.910;23.792;2023-03-15T19:17:40;96529.59;;;10.74;50.73
57086;BME280;42964;42.910;23.792;2023-03-15T19:22:40;96537.41;;;10.73;52.68
57086;BME280;42964;42.910;23.792;2023-03-15T19:27:40;96540.00;;;10.73;54.91
57086;BME280;42964;42.910;23.792;2023-03-15T19:32:39;96550.69;;;10.59;55.94
57086;BME280;42964;42.910;23.792;2023-03-15T19:37:40;96556.16;;;10.45;57.91
57086;BME280;42964;42.910;23.792;2023-03-15T19:42:41;96569.06;;;10.47;60.02
57086;BME280;42964;42.910;23.792;2023-03-15T19:47:40;96571.00;;;10.37;60.99
57086;BME280;42964;42.910;23.792;2023-03-15T19:52:41;96572.94;;;10.26;62.45
57086;BME280;42964;42.910;23.792;2023-03-15T19:57:48;96581.69;;;10.18;64.66
57086;BME280;42964;42.910;23.792;2023-03-15T20:02:48;96541.03;;;9.74;65.32
57086;BME280;42964;42.910;23.792;2023-03-15T20:07:48;96591.78;;;9.87;66.31
57086;BME280;42964;42.910;23.792;2023-03-15T20:12:49;96602.34;;;9.73;68.25
57086;BME280;42964;42.910;23.792;2023-03-15T20:17:48;96587.78;;;9.68;68.52
57086;BME280;42964;42.910;23.792;2023-03-15T20:22:47;96613.69;;;9.66;71.27
57086;BME280;42964;42.910;23.792;2023-03-15T20:27:46;96602.56;;;9.61;72.21
57086;BME280;42964;42.910;23.792;2023-03-15T20:32:45;96614.88;;;9.47;72.22
57086;BME280;42964;42.910;23.792;2023-03-15T20:37:44;96621.81;;;9.42;73.18
57086;BME280;42964;42.910;23.792;2023-03-15T20:42:43;96623.69;;;9.33;73.62
57086;BME280;42964;42.910;23.792;2023-03-15T20:47:42;96616.84;;;9.26;75.61
57086;BME280;42964;42.910;23.792;2023-03-15T20:52:41;96488.72;;;8.36;76.36
57086;BME280;42964;42.910;23.792;2023-03-15T20:57:41;96632.53;;;9.15;76.92
57086;BME280;42964;42.910;23.792;2023-03-15T21:02:40;96631.00;;;9.01;77.50
57086;BME280;42964;42.910;23.792;2023-03-15T21:07:40;96631.97;;;8.92;77.91
57086;BME280;42964;42.910;23.792;2023-03-15T21:12:39;96636.34;;;8.85;78.73
57086;BME280;42964;42.910;23.792;2023-03-15T21:17:38;96643.25;;;8.86;79.12
57086;BME280;42964;42.910;23.792;2023-03-15T21:22:37;96644.06;;;8.90;78.75
57086;BME280;42964;42.910;23.792;2023-03-15T21:27:36;96650.13;;;8.90;79.17
57086;BME280;42964;42.910;23.792;2023-03-15T21:32:35;96651.16;;;8.74;79.03
57086;BME280;42964;42.910;23.792;2023-03-15T21:37:35;96658.28;;;8.52;80.13
57086;BME280;42964;42.910;23.792;2023-03-15T21:42:35;96660.19;;;8.33;81.29
57086;BME280;42964;42.910;23.792;2023-03-15T21:47:34;96669.06;;;8.09;81.48
57086;BME280;42964;42.910;23.792;2023-03-15T21:52:32;96674.22;;;8.06;82.89
57086;BME280;42964;42.910;23.792;2023-03-15T21:57:31;96676.75;;;8.11;82.86
57086;BME280;42964;42.910;23.792;2023-03-15T22:02:31;96681.84;;;8.21;82.43
57086;BME280;42964;42.910;23.792;2023-03-15T22:07:30;96625.25;;;7.95;82.18
57086;BME280;42964;42.910;23.792;2023-03-15T22:12:29;96695.53;;;8.31;81.29
57086;BME280;42964;42.910;23.792;2023-03-15T22:17:28;96650.25;;;7.90;81.67
57086;BME280;42964;42.910;23.792;2023-03-15T22:22:27;96698.31;;;8.11;82.17
57086;BME280;42964;42.910;23.792;2023-03-15T22:27:26;96699.13;;;8.18;82.78
57086;BME280;42964;42.910;23.792;2023-03-15T22:32:25;96700.75;;;8.28;82.12
57086;BME280;42964;42.910;23.792;2023-03-15T22:37:24;96711.88;;;8.36;82.28
57086;BME280;42964;42.910;23.792;2023-03-15T22:42:23;96544.78;;;7.38;81.75
57086;BME280;42964;42.910;23.792;2023-03-15T22:47:22;96689.56;;;8.24;82.20
57086;BME280;42964;42.910;23.792;2023-03-15T22:52:21;96710.13;;;8.40;82.35
57086;BME280;42964;42.910;23.792;2023-03-15T22:57:20;96715.25;;;8.44;82.29
57086;BME280;42964;42.910;23.792;2023-03-15T23:02:19;96710.16;;;8.37;82.48
57086;BME280;42964;42.910;23.792;2023-03-15T23:07:19;96723.13;;;8.32;82.48
57086;BME280;42964;42.910;23.792;2023-03-15T23:12:18;96660.59;;;7.90;82.06
57086;BME280;42964;42.910;23.792;2023-03-15T23:17:17;96730.06;;;8.24;81.98
57086;BME280;42964;42.910;23.792;2023-03-15T23:22:16;96747.31;;;8.25;82.02
57086;BME280;42964;42.910;23.792;2023-03-15T23:27:15;96743.06;;;8.18;81.11
57086;BME280;42964;42.910;23.792;2023-03-15T23:32:14;96748.19;;;8.19;81.22
57086;BME280;42964;42.910;23.792;2023-03-15T23:37:12;96748.25;;;8.13;80.88
57086;BME280;42964;42.910;23.792;2023-03-15T23:42:14;96758.63;;;8.07;80.15
57086;BME280;42964;42.910;23.792;2023-03-15T23:47:13;96741.41;;;8.07;80.44
57086;BME280;42964;42.910;23.792;2023-03-15T23:52:12;96764.63;;;8.14;79.77
57086;BME280;42964;42.910;23.792;2023-03-15T23:57:13;96762.94;;;8.05;79.60
